sensor_id;sensor_type;location;lat;lon;timestamp;P1;durP1;ratioP1;P2;durP2;ratioP2
6197;SDS011;3132;42.622;23.328;2023-04-06T00:00:47;15.30;;;14.00;;
6197;SDS011;3132;42.622;23.328;2023-04-06T00:03:13;15.33;;;13.87;;
6197;SDS011;3132;42.622;23.328;2023-04-06T00:05:39;16.10;;;14.83;;
6197;SDS011;3132;42.622;23.328;2023-04-06T00:08:05;17.87;;;15.77;;
6197;SDS011;3132;42.622;23.328;2023-04-06T00:10:31;17.57;;;15.93;;
6197;SDS011;3132;42.622;23.328;2023-04-06T00:12:57;17.27;;;15.60;;
6197;SDS011;3132;42.622;23.328;2023-04-06T00:15:23;17.43;;;15.67;;
6197;SDS011;3132;42.622;23.328;2023-04-06T00:17:48;16.50;;;15.00;;
6197;SDS011;3132;42.622;23.328;2023-04-06T00:20:14;16.20;;;14.90;;
6197;SDS011;3132;42.622;23.328;2023-04-06T00:22:41;18.10;;;16.40;;
6197;SDS011;3132;42.622;23.328;2023-04-06T00:25:06;17.57;;;15.77;;
6197;SDS011;3132;42.622;23.328;2023-04-06T00:27:32;16.40;;;14.97;;
6197;SDS011;3132;42.622;23.328;2023-04-06T00:29:58;16.57;;;15.00;;
6197;SDS011;3132;42.622;23.328;2023-04-06T00:32:23;16.37;;;14.90;;
6197;SDS011;3132;42.622;23.328;2023-04-06T00:34:48;16.73;;;15.23;;
6197;SDS011;3132;42.622;23.328;2023-04-06T00:37:14;16.80;;;15.30;;
6197;SDS011;3132;42.622;23.328;2023-04-06T00:39:39;22.50;;;16.87;;
6197;SDS011;3132;42.622;23.328;2023-04-06T00:42:10;17.50;;;15.73;;
6197;SDS011;3132;42.622;23.328;2023-04-06T00:44:42;16.50;;;14.80;;
6197;SDS011;3132;42.622;23.328;2023-04-06T00:47:08;17.90;;;16.00;;
6197;SDS011;3132;42.622;23.328;2023-04-06T00:49:34;17.57;;;15.40;;
6197;SDS011;3132;42.622;23.328;2023-04-06T00:52:00;18.37;;;15.60;;
6197;SDS011;3132;42.622;23.328;2023-04-06T00:54:26;17.23;;;15.53;;
6197;SDS011;3132;42.622;23.328;2023-04-06T00:56:51;19.20;;;17.50;;
6197;SDS011;3132;42.622;23.328;2023-04-06T00:59:17;16.30;;;14.70;;
6197;SDS011;3132;42.622;23.328;2023-04-06T01:01:42;17.23;;;15.67;;
6197;SDS011;3132;42.622;23.328;2023-04-06T01:04:08;17.70;;;16.03;;
6197;SDS011;3132;42.622;23.328;2023-04-06T01:06:33;16.63;;;15.20;;
6197;SDS011;3132;42.622;23.328;2023-04-06T01:08:59;15.83;;;14.33;;
6197;SDS011;3132;42.622;23.328;2023-04-06T01:11:25;15.80;;;14.37;;
6197;SDS011;3132;42.622;23.328;2023-04-06T01:13:51;16.87;;;15.43;;
6197;SDS011;3132;42.622;23.328;2023-04-06T01:16:17;14.10;;;13.00;;
6197;SDS011;3132;42.622;23.328;2023-04-06T01:18:42;14.67;;;13.37;;
6197;SDS011;3132;42.622;23.328;2023-04-06T01:21:08;15.47;;;14.17;;
6197;SDS011;3132;42.622;23.328;2023-04-06T01:23:40;13.83;;;12.83;;
6197;SDS011;3132;42.622;23.328;2023-04-06T01:26:07;16.47;;;14.97;;
6197;SDS011;3132;42.622;23.328;2023-04-06T01:28:33;16.10;;;14.80;;
6197;SDS011;3132;42.622;23.328;2023-04-06T01:30:58;15.30;;;13.77;;
6197;SDS011;3132;42.622;23.328;2023-04-06T01:33:24;15.27;;;13.70;;
6197;SDS011;3132;42.622;23.328;2023-04-06T01:35:50;14.47;;;13.27;;
6197;SDS011;3132;42.622;23.328;2023-04-06T01:38:15;14.33;;;13.13;;
6197;SDS011;3132;42.622;23.328;2023-04-06T01:40:41;15.00;;;13.63;;
6197;SDS011;3132;42.622;23.328;2023-04-06T01:43:06;14.03;;;12.93;;
6197;SDS011;3132;42.622;23.328;2023-04-06T01:45:31;14.67;;;13.47;;
6197;SDS011;3132;42.622;23.328;2023-04-06T01:47:57;15.27;;;13.93;;
6197;SDS011;3132;42.622;23.328;2023-04-06T01:50:22;15.23;;;14.10;;
6197;SDS011;3132;42.622;23.328;2023-04-06T01:52:48;13.17;;;12.17;;
6197;SDS011;3132;42.622;23.328;2023-04-06T01:55:13;14.17;;;12.87;;
6197;SDS011;3132;42.622;23.328;2023-04-06T01:57:39;14.93;;;13.73;;
6197;SDS011;3132;42.622;23.328;2023-04-06T02:00:04;13.23;;;12.13;;
6197;SDS011;3132;42.622;23.328;2023-04-06T02:02:30;14.07;;;12.80;;
6197;SDS011;3132;42.622;23.328;2023-04-06T02:04:55;14.50;;;13.30;;
6197;SDS011;3132;42.622;23.328;2023-04-06T02:07:21;14.57;;;13.37;;
6197;SDS011;3132;42.622;23.328;2023-04-06T02:09:46;14.97;;;13.57;;
6197;SDS011;3132;42.622;23.328;2023-04-06T02:12:12;13.77;;;12.60;;
6197;SDS011;3132;42.622;23.328;2023-04-06T02:14:37;14.67;;;13.57;;
6197;SDS011;3132;42.622;23.328;2023-04-06T02:17:02;13.83;;;12.73;;
6197;SDS011;3132;42.622;23.328;2023-04-06T02:19:28;17.07;;;15.40;;
6197;SDS011;3132;42.622;23.328;2023-04-06T02:21:53;17.43;;;14.80;;
6197;SDS011;3132;42.622;23.328;2023-04-06T02:24:19;18.20;;;16.40;;
6197;SDS011;3132;42.622;23.328;2023-04-06T02:26:44;14.80;;;13.30;;
6197;SDS011;3132;42.622;23.328;2023-04-06T02:29:10;13.97;;;12.67;;
6197;SDS011;3132;42.622;23.328;2023-04-06T02:31:35;15.60;;;14.20;;
6197;SDS011;3132;42.622;23.328;2023-04-06T02:34:01;14.40;;;13.10;;
6197;SDS011;3132;42.622;23.328;2023-04-06T02:36:26;16.60;;;15.00;;
6197;SDS011;3132;42.622;23.328;2023-04-06T02:38:52;15.27;;;13.97;;
6197;SDS011;3132;42.622;23.328;2023-04-06T02:41:17;14.73;;;13.53;;
6197;SDS011;3132;42.622;23.328;2023-04-06T02:43:43;14.27;;;12.87;;
6197;SDS011;3132;42.622;23.328;2023-04-06T02:46:08;13.87;;;12.70;;
6197;SDS011;3132;42.622;23.328;2023-04-06T02:48:33;13.87;;;12.67;;
6197;SDS011;3132;42.622;23.328;2023-04-06T02:51:01;15.00;;;13.80;;
6197;SDS011;3132;42.622;23.328;2023-04-06T02:53:26;13.43;;;12.30;;
6197;SDS011;3132;42.622;23.328;2023-04-06T02:55:52;14.10;;;13.10;;
6197;SDS011;3132;42.622;23.328;2023-04-06T02:58:18;14.17;;;12.93;;
6197;SDS011;3132;42.622;23.328;2023-04-06T03:00:43;13.77;;;12.77;;
6197;SDS011;3132;42.622;23.328;2023-04-06T03:03:09;14.00;;;12.97;;
6197;SDS011;3132;42.622;23.328;2023-04-06T03:05:34;13.77;;;12.80;;
6197;SDS011;3132;42.622;23.328;2023-04-06T03:08:00;14.57;;;13.37;;
6197;SDS011;3132;42.622;23.328;2023-04-06T03:10:25;14.20;;;13.00;;
6197;SDS011;3132;42.622;23.328;2023-04-06T03:12:51;13.80;;;12.63;;
6197;SDS011;3132;42.622;23.328;2023-04-06T03:15:16;15.70;;;14.43;;
6197;SDS011;3132;42.622;23.328;2023-04-06T03:17:41;13.80;;;12.70;;
6197;SDS011;3132;42.622;23.328;2023-04-06T03:20:07;14.33;;;13.23;;
6197;SDS011;3132;42.622;23.328;2023-04-06T03:22:33;12.53;;;11.57;;
6197;SDS011;3132;42.622;23.328;2023-04-06T03:24:58;13.53;;;12.50;;
6197;SDS011;3132;42.622;23.328;2023-04-06T03:27:23;12.97;;;12.17;;
6197;SDS011;3132;42.622;23.328;2023-04-06T03:29:49;13.97;;;12.90;;
6197;SDS011;3132;42.622;23.328;2023-04-06T03:32:14;14.33;;;13.17;;
6197;SDS011;3132;42.622;23.328;2023-04-06T03:34:40;13.70;;;12.53;;
6197;SDS011;3132;42.622;23.328;2023-04-06T03:37:05;14.33;;;13.07;;
6197;SDS011;3132;42.622;23.328;2023-04-06T03:39:30;12.30;;;11.17;;
6197;SDS011;3132;42.622;23.328;2023-04-06T03:41:56;13.47;;;12.43;;
6197;SDS011;3132;42.622;23.328;2023-04-06T03:44:22;13.57;;;12.57;;
6197;SDS011;3132;42.622;23.328;2023-04-06T03:46:47;12.30;;;11.30;;
6197;SDS011;3132;42.622;23.328;2023-04-06T03:49:12;13.73;;;12.80;;
6197;SDS011;3132;42.622;23.328;2023-04-06T03:51:38;13.27;;;12.03;;
6197;SDS011;3132;42.622;23.328;2023-04-06T03:54:03;14.73;;;13.53;;
6197;SDS011;3132;42.622;23.328;2023-04-06T03:56:29;13.43;;;12.43;;
6197;SDS011;3132;42.622;23.328;2023-04-06T03:58:55;13.77;;;12.67;;
6197;SDS011;3132;42.622;23.328;2023-04-06T04:01:20;13.43;;;12.47;;
6197;SDS011;3132;42.622;23.328;2023-04-06T04:03:45;13.10;;;12.10;;
6197;SDS011;3132;42.622;23.328;2023-04-06T04:06:11;13.53;;;12.53;;
6197;SDS011;3132;42.622;23.328;2023-04-06T04:08:36;13.43;;;12.47;;
6197;SDS011;3132;42.622;23.328;2023-04-06T04:11:02;12.67;;;11.77;;
6197;SDS011;3132;42.622;23.328;2023-04-06T04:13:27;13.37;;;12.30;;
6197;SDS011;3132;42.622;23.328;2023-04-06T04:15:53;12.53;;;11.27;;
6197;SDS011;3132;42.622;23.328;2023-04-06T04:18:18;14.07;;;13.03;;
6197;SDS011;3132;42.622;23.328;2023-04-06T04:20:44;12.73;;;11.83;;
6197;SDS011;3132;42.622;23.328;2023-04-06T04:23:09;12.93;;;12.03;;
6197;SDS011;3132;42.622;23.328;2023-04-06T04:25:35;11.63;;;10.80;;
6197;SDS011;3132;42.622;23.328;2023-04-06T04:28:01;13.40;;;12.40;;
6197;SDS011;3132;42.622;23.328;2023-04-06T04:30:27;14.00;;;13.17;;
6197;SDS011;3132;42.622;23.328;2023-04-06T04:32:52;13.57;;;12.53;;
6197;SDS011;3132;42.622;23.328;2023-04-06T04:35:18;13.20;;;12.10;;
6197;SDS011;3132;42.622;23.328;2023-04-06T04:37:43;13.03;;;12.07;;
6197;SDS011;3132;42.622;23.328;2023-04-06T04:40:08;12.63;;;11.53;;
6197;SDS011;3132;42.622;23.328;2023-04-06T04:42:34;12.73;;;11.70;;
6197;SDS011;3132;42.622;23.328;2023-04-06T04:45:00;14.30;;;13.23;;
6197;SDS011;3132;42.622;23.328;2023-04-06T04:47:25;12.60;;;11.63;;
6197;SDS011;3132;42.622;23.328;2023-04-06T04:49:51;13.03;;;11.73;;
6197;SDS011;3132;42.622;23.328;2023-04-06T04:52:16;14.37;;;13.03;;
6197;SDS011;3132;42.622;23.328;2023-04-06T04:54:42;13.50;;;12.40;;
6197;SDS011;3132;42.622;23.328;2023-04-06T04:57:07;12.93;;;11.83;;
6197;SDS011;3132;42.622;23.328;2023-04-06T04:59:33;13.03;;;12.13;;
6197;SDS011;3132;42.622;23.328;2023-04-06T05:02:00;12.90;;;12.00;;
6197;SDS011;3132;42.622;23.328;2023-04-06T05:04:25;12.30;;;11.13;;
6197;SDS011;3132;42.622;23.328;2023-04-06T05:07:01;12.67;;;11.63;;
6197;SDS011;3132;42.622;23.328;2023-04-06T05:09:29;12.30;;;11.50;;
6197;SDS011;3132;42.622;23.328;2023-04-06T05:11:55;12.87;;;12.10;;
6197;SDS011;3132;42.622;23.328;2023-04-06T05:14:20;12.73;;;11.77;;
6197;SDS011;3132;42.622;23.328;2023-04-06T05:16:46;11.53;;;10.77;;
6197;SDS011;3132;42.622;23.328;2023-04-06T05:19:11;11.50;;;10.70;;
6197;SDS011;3132;42.622;23.328;2023-04-06T05:21:37;11.93;;;11.17;;
6197;SDS011;3132;42.622;23.328;2023-04-06T05:24:02;11.40;;;10.73;;
6197;SDS011;3132;42.622;23.328;2023-04-06T05:26:28;12.43;;;11.63;;
6197;SDS011;3132;42.622;23.328;2023-04-06T05:28:53;11.33;;;10.63;;
6197;SDS011;3132;42.622;23.328;2023-04-06T05:31:20;11.60;;;10.93;;
6197;SDS011;3132;42.622;23.328;2023-04-06T05:33:45;12.23;;;11.43;;
6197;SDS011;3132;42.622;23.328;2023-04-06T05:36:10;12.27;;;11.47;;
6197;SDS011;3132;42.622;23.328;2023-04-06T05:38:36;12.70;;;11.93;;
6197;SDS011;3132;42.622;23.328;2023-04-06T05:41:02;12.13;;;11.43;;
6197;SDS011;3132;42.622;23.328;2023-04-06T05:43:27;13.50;;;12.60;;
6197;SDS011;3132;42.622;23.328;2023-04-06T05:45:53;12.20;;;11.40;;
6197;SDS011;3132;42.622;23.328;2023-04-06T05:48:18;12.57;;;11.77;;
6197;SDS011;3132;42.622;23.328;2023-04-06T05:50:47;12.40;;;11.70;;
6197;SDS011;3132;42.622;23.328;2023-04-06T05:53:14;13.37;;;12.47;;
6197;SDS011;3132;42.622;23.328;2023-04-06T05:55:40;12.77;;;11.77;;
6197;SDS011;3132;42.622;23.328;2023-04-06T05:58:05;11.70;;;10.90;;
6197;SDS011;3132;42.622;23.328;2023-04-06T06:00:30;12.37;;;11.57;;
6197;SDS011;3132;42.622;23.328;2023-04-06T06:02:56;12.80;;;11.77;;
6197;SDS011;3132;42.622;23.328;2023-04-06T06:05:21;14.00;;;12.70;;
6197;SDS011;3132;42.622;23.328;2023-04-06T06:07:47;13.23;;;11.97;;
6197;SDS011;3132;42.622;23.328;2023-04-06T06:10:12;12.63;;;11.73;;
6197;SDS011;3132;42.622;23.328;2023-04-06T06:12:38;12.17;;;11.07;;
6197;SDS011;3132;42.622;23.328;2023-04-06T06:15:03;13.50;;;12.47;;
6197;SDS011;3132;42.622;23.328;2023-04-06T06:17:30;12.93;;;11.93;;
6197;SDS011;3132;42.622;23.328;2023-04-06T06:19:55;13.20;;;12.17;;
6197;SDS011;3132;42.622;23.328;2023-04-06T06:22:21;13.60;;;12.60;;
6197;SDS011;3132;42.622;23.328;2023-04-06T06:24:46;13.00;;;11.90;;
6197;SDS011;3132;42.622;23.328;2023-04-06T06:27:11;12.33;;;11.43;;
6197;SDS011;3132;42.622;23.328;2023-04-06T06:29:37;13.40;;;12.33;;
6197;SDS011;3132;42.622;23.328;2023-04-06T06:32:02;13.00;;;12.10;;
6197;SDS011;3132;42.622;23.328;2023-04-06T06:34:28;12.07;;;11.40;;
6197;SDS011;3132;42.622;23.328;2023-04-06T06:36:53;13.53;;;12.53;;
6197;SDS011;3132;42.622;23.328;2023-04-06T06:39:20;12.50;;;11.57;;
6197;SDS011;3132;42.622;23.328;2023-04-06T06:41:46;12.57;;;11.77;;
6197;SDS011;3132;42.622;23.328;2023-04-06T06:44:11;12.57;;;11.77;;
6197;SDS011;3132;42.622;23.328;2023-04-06T06:46:37;11.47;;;10.80;;
6197;SDS011;3132;42.622;23.328;2023-04-06T06:49:02;12.40;;;11.40;;
6197;SDS011;3132;42.622;23.328;2023-04-06T06:51:28;11.77;;;10.87;;
6197;SDS011;3132;42.622;23.328;2023-04-06T06:53:53;12.63;;;11.50;;
6197;SDS011;3132;42.622;23.328;2023-04-06T06:56:19;11.70;;;10.97;;
6197;SDS011;3132;42.622;23.328;2023-04-06T06:58:45;13.43;;;12.43;;
6197;SDS011;3132;42.622;23.328;2023-04-06T07:01:10;12.03;;;11.23;;
6197;SDS011;3132;42.622;23.328;2023-04-06T07:03:36;11.63;;;10.83;;
6197;SDS011;3132;42.622;23.328;2023-04-06T07:06:01;13.43;;;12.23;;
6197;SDS011;3132;42.622;23.328;2023-04-06T07:08:27;12.37;;;11.50;;
6197;SDS011;3132;42.622;23.328;2023-04-06T07:10:52;12.60;;;11.57;;
6197;SDS011;3132;42.622;23.328;2023-04-06T07:13:18;12.73;;;11.83;;
6197;SDS011;3132;42.622;23.328;2023-04-06T07:15:51;12.07;;;11.20;;
6197;SDS011;3132;42.622;23.328;2023-04-06T07:18:17;12.07;;;11.17;;
6197;SDS011;3132;42.622;23.328;2023-04-06T07:20:45;12.33;;;11.43;;
6197;SDS011;3132;42.622;23.328;2023-04-06T07:23:11;11.83;;;10.80;;
6197;SDS011;3132;42.622;23.328;2023-04-06T07:25:36;12.63;;;11.57;;
6197;SDS011;3132;42.622;23.328;2023-04-06T07:28:02;12.30;;;11.47;;
6197;SDS011;3132;42.622;23.328;2023-04-06T07:30:28;12.53;;;11.63;;
6197;SDS011;3132;42.622;23.328;2023-04-06T07:32:54;13.17;;;11.93;;
6197;SDS011;3132;42.622;23.328;2023-04-06T07:35:24;13.07;;;12.23;;
6197;SDS011;3132;42.622;23.328;2023-04-06T07:37:51;12.40;;;11.60;;
6197;SDS011;3132;42.622;23.328;2023-04-06T07:40:16;14.07;;;12.97;;
6197;SDS011;3132;42.622;23.328;2023-04-06T07:42:43;11.77;;;10.87;;
6197;SDS011;3132;42.622;23.328;2023-04-06T07:45:08;13.43;;;12.20;;
6197;SDS011;3132;42.622;23.328;2023-04-06T07:47:34;14.20;;;12.73;;
6197;SDS011;3132;42.622;23.328;2023-04-06T07:50:00;13.97;;;12.77;;
6197;SDS011;3132;42.622;23.328;2023-04-06T07:52:25;12.80;;;11.90;;
6197;SDS011;3132;42.622;23.328;2023-04-06T07:54:51;12.87;;;12.07;;
6197;SDS011;3132;42.622;23.328;2023-04-06T07:57:16;11.17;;;10.53;;
6197;SDS011;3132;42.622;23.328;2023-04-06T07:59:43;14.20;;;13.20;;
6197;SDS011;3132;42.622;23.328;2023-04-06T08:02:08;11.93;;;11.07;;
6197;SDS011;3132;42.622;23.328;2023-04-06T08:04:34;13.10;;;12.13;;
6197;SDS011;3132;42.622;23.328;2023-04-06T08:07:00;12.57;;;11.50;;
6197;SDS011;3132;42.622;23.328;2023-04-06T08:09:26;12.77;;;11.83;;
6197;SDS011;3132;42.622;23.328;2023-04-06T08:11:51;11.83;;;11.00;;
6197;SDS011;3132;42.622;23.328;2023-04-06T08:14:17;13.23;;;12.33;;
6197;SDS011;3132;42.622;23.328;2023-04-06T08:16:42;12.33;;;10.93;;
6197;SDS011;3132;42.622;23.328;2023-04-06T08:19:08;11.97;;;11.03;;
6197;SDS011;3132;42.622;23.328;2023-04-06T08:21:34;11.73;;;10.93;;
6197;SDS011;3132;42.622;23.328;2023-04-06T08:24:01;11.37;;;10.43;;
6197;SDS011;3132;42.622;23.328;2023-04-06T08:26:26;12.27;;;11.27;;
6197;SDS011;3132;42.622;23.328;2023-04-06T08:28:52;12.17;;;11.33;;
6197;SDS011;3132;42.622;23.328;2023-04-06T08:31:17;12.33;;;11.53;;
6197;SDS011;3132;42.622;23.328;2023-04-06T08:33:43;13.83;;;12.63;;
6197;SDS011;3132;42.622;23.328;2023-04-06T08:36:12;13.80;;;12.70;;
6197;SDS011;3132;42.622;23.328;2023-04-06T08:38:39;12.43;;;11.57;;
6197;SDS011;3132;42.622;23.328;2023-04-06T08:41:09;13.00;;;11.83;;
6197;SDS011;3132;42.622;23.328;2023-04-06T08:43:57;12.10;;;11.20;;
6197;SDS011;3132;42.622;23.328;2023-04-06T08:46:22;13.20;;;12.10;;
6197;SDS011;3132;42.622;23.328;2023-04-06T08:48:54;13.40;;;12.37;;
6197;SDS011;3132;42.622;23.328;2023-04-06T08:51:20;13.30;;;12.30;;
6197;SDS011;3132;42.622;23.328;2023-04-06T08:53:52;14.00;;;13.13;;
6197;SDS011;3132;42.622;23.328;2023-04-06T08:56:21;14.83;;;13.67;;
6197;SDS011;3132;42.622;23.328;2023-04-06T08:58:48;14.10;;;12.37;;
6197;SDS011;3132;42.622;23.328;2023-04-06T09:01:14;13.97;;;12.87;;
6197;SDS011;3132;42.622;23.328;2023-04-06T09:03:42;12.30;;;11.40;;
6197;SDS011;3132;42.622;23.328;2023-04-06T09:06:09;12.10;;;11.07;;
6197;SDS011;3132;42.622;23.328;2023-04-06T09:08:38;11.93;;;11.13;;
6197;SDS011;3132;42.622;23.328;2023-04-06T09:11:05;12.30;;;11.40;;
6197;SDS011;3132;42.622;23.328;2023-04-06T09:13:31;12.87;;;11.90;;
6197;SDS011;3132;42.622;23.328;2023-04-06T09:16:03;13.30;;;12.30;;
6197;SDS011;3132;42.622;23.328;2023-04-06T09:18:31;14.30;;;12.90;;
6197;SDS011;3132;42.622;23.328;2023-04-06T09:20:58;12.60;;;11.80;;
6197;SDS011;3132;42.622;23.328;2023-04-06T09:23:25;12.63;;;11.63;;
6197;SDS011;3132;42.622;23.328;2023-04-06T09:25:51;13.73;;;12.60;;
6197;SDS011;3132;42.622;23.328;2023-04-06T09:28:16;13.17;;;12.07;;
6197;SDS011;3132;42.622;23.328;2023-04-06T09:30:48;12.70;;;11.70;;
6197;SDS011;3132;42.622;23.328;2023-04-06T09:33:21;13.17;;;12.07;;
6197;SDS011;3132;42.622;23.328;2023-04-06T09:35:50;12.90;;;11.83;;
6197;SDS011;3132;42.622;23.328;2023-04-06T09:38:15;12.97;;;11.93;;
6197;SDS011;3132;42.622;23.328;2023-04-06T09:40:48;13.47;;;12.37;;
6197;SDS011;3132;42.622;23.328;2023-04-06T09:43:23;12.60;;;11.57;;
6197;SDS011;3132;42.622;23.328;2023-04-06T09:45:52;13.07;;;12.17;;
6197;SDS011;3132;42.622;23.328;2023-04-06T09:48:19;14.23;;;13.00;;
6197;SDS011;3132;42.622;23.328;2023-04-06T09:50:47;12.63;;;11.73;;
6197;SDS011;3132;42.622;23.328;2023-04-06T09:53:21;13.60;;;12.43;;
6197;SDS011;3132;42.622;23.328;2023-04-06T09:55:50;12.97;;;11.87;;
6197;SDS011;3132;42.622;23.328;2023-04-06T09:58:21;14.93;;;13.83;;
6197;SDS011;3132;42.622;23.328;2023-04-06T10:00:54;14.73;;;13.50;;
6197;SDS011;3132;42.622;23.328;2023-04-06T10:06:10;13.47;;;12.27;;
6197;SDS011;3132;42.622;23.328;2023-04-06T10:08:36;14.13;;;12.90;;
6197;SDS011;3132;42.622;23.328;2023-04-06T10:11:07;14.77;;;13.47;;
6197;SDS011;3132;42.622;23.328;2023-04-06T10:13:34;14.07;;;12.87;;
6197;SDS011;3132;42.622;23.328;2023-04-06T10:16:00;15.43;;;14.03;;
6197;SDS011;3132;42.622;23.328;2023-04-06T10:18:26;14.00;;;12.73;;
6197;SDS011;3132;42.622;23.328;2023-04-06T10:23:38;13.83;;;12.73;;
6197;SDS011;3132;42.622;23.328;2023-04-06T10:26:17;14.50;;;13.07;;
6197;SDS011;3132;42.622;23.328;2023-04-06T10:28:45;14.87;;;13.37;;
6197;SDS011;3132;42.622;23.328;2023-04-06T10:31:11;14.77;;;13.33;;
6197;SDS011;3132;42.622;23.328;2023-04-06T10:33:37;14.93;;;13.73;;
6197;SDS011;3132;42.622;23.328;2023-04-06T10:36:10;15.13;;;13.80;;
6197;SDS011;3132;42.622;23.328;2023-04-06T10:38:40;16.77;;;13.77;;
6197;SDS011;3132;42.622;23.328;2023-04-06T10:41:07;14.47;;;12.97;;
6197;SDS011;3132;42.622;23.328;2023-04-06T10:43:35;16.10;;;14.60;;
6197;SDS011;3132;42.622;23.328;2023-04-06T10:46:01;14.30;;;13.20;;
6197;SDS011;3132;42.622;23.328;2023-04-06T10:48:38;14.43;;;13.23;;
6197;SDS011;3132;42.622;23.328;2023-04-06T10:51:11;14.00;;;12.17;;
6197;SDS011;3132;42.622;23.328;2023-04-06T10:53:38;14.30;;;13.17;;
6197;SDS011;3132;42.622;23.328;2023-04-06T10:56:10;15.33;;;14.20;;
6197;SDS011;3132;42.622;23.328;2023-04-06T11:01:18;14.67;;;13.47;;
6197;SDS011;3132;42.622;23.328;2023-04-06T11:03:46;15.63;;;14.13;;
6197;SDS011;3132;42.622;23.328;2023-04-06T11:06:22;15.00;;;13.60;;
6197;SDS011;3132;42.622;23.328;2023-04-06T11:08:50;13.87;;;12.63;;
6197;SDS011;3132;42.622;23.328;2023-04-06T11:11:17;15.23;;;13.90;;
6197;SDS011;3132;42.622;23.328;2023-04-06T11:13:49;14.00;;;13.00;;
6197;SDS011;3132;42.622;23.328;2023-04-06T11:16:22;14.43;;;13.27;;
6197;SDS011;3132;42.622;23.328;2023-04-06T11:29:15;17.17;;;13.77;;
6197;SDS011;3132;42.622;23.328;2023-04-06T11:31:42;15.77;;;14.43;;
6197;SDS011;3132;42.622;23.328;2023-04-06T11:34:17;13.93;;;12.47;;
6197;SDS011;3132;42.622;23.328;2023-04-06T11:36:45;14.90;;;13.60;;
6197;SDS011;3132;42.622;23.328;2023-04-06T11:39:19;15.40;;;14.03;;
6197;SDS011;3132;42.622;23.328;2023-04-06T11:41:53;13.83;;;12.70;;
6197;SDS011;3132;42.622;23.328;2023-04-06T11:44:28;16.47;;;15.03;;
6197;SDS011;3132;42.622;23.328;2023-04-06T11:46:56;14.57;;;13.17;;
6197;SDS011;3132;42.622;23.328;2023-04-06T11:49:26;15.17;;;13.93;;
6197;SDS011;3132;42.622;23.328;2023-04-06T11:51:52;14.93;;;13.83;;
6197;SDS011;3132;42.622;23.328;2023-04-06T11:54:17;15.40;;;13.90;;
6197;SDS011;3132;42.622;23.328;2023-04-06T11:56:45;14.57;;;13.23;;
6197;SDS011;3132;42.622;23.328;2023-04-06T11:59:12;14.70;;;13.40;;
6197;SDS011;3132;42.622;23.328;2023-04-06T12:01:44;14.43;;;13.33;;
6197;SDS011;3132;42.622;23.328;2023-04-06T12:04:10;14.43;;;13.13;;
6197;SDS011;3132;42.622;23.328;2023-04-06T12:06:36;15.50;;;13.63;;
6197;SDS011;3132;42.622;23.328;2023-04-06T12:09:01;14.67;;;13.53;;
6197;SDS011;3132;42.622;23.328;2023-04-06T12:11:27;15.07;;;13.77;;
6197;SDS011;3132;42.622;23.328;2023-04-06T12:13:52;13.90;;;12.77;;
6197;SDS011;3132;42.622;23.328;2023-04-06T12:16:18;16.37;;;14.70;;
6197;SDS011;3132;42.622;23.328;2023-04-06T12:18:44;17.10;;;15.50;;
6197;SDS011;3132;42.622;23.328;2023-04-06T12:21:09;16.63;;;14.97;;
6197;SDS011;3132;42.622;23.328;2023-04-06T12:23:35;14.83;;;13.67;;
6197;SDS011;3132;42.622;23.328;2023-04-06T12:26:01;14.07;;;13.13;;
6197;SDS011;3132;42.622;23.328;2023-04-06T12:28:27;15.47;;;14.07;;
6197;SDS011;3132;42.622;23.328;2023-04-06T12:30:53;14.63;;;13.23;;
6197;SDS011;3132;42.622;23.328;2023-04-06T12:33:19;14.47;;;13.23;;
6197;SDS011;3132;42.622;23.328;2023-04-06T12:35:45;15.23;;;13.90;;
6197;SDS011;3132;42.622;23.328;2023-04-06T12:38:11;14.70;;;13.60;;
6197;SDS011;3132;42.622;23.328;2023-04-06T12:40:37;16.20;;;11.83;;
6197;SDS011;3132;42.622;23.328;2023-04-06T12:43:03;15.53;;;14.23;;
6197;SDS011;3132;42.622;23.328;2023-04-06T12:45:30;14.83;;;13.67;;
6197;SDS011;3132;42.622;23.328;2023-04-06T12:47:55;14.60;;;13.33;;
6197;SDS011;3132;42.622;23.328;2023-04-06T12:50:21;13.83;;;12.73;;
6197;SDS011;3132;42.622;23.328;2023-04-06T12:52:47;16.73;;;15.00;;
6197;SDS011;3132;42.622;23.328;2023-04-06T12:55:12;16.07;;;14.50;;
6197;SDS011;3132;42.622;23.328;2023-04-06T12:57:37;16.67;;;14.73;;
6197;SDS011;3132;42.622;23.328;2023-04-06T13:00:04;15.10;;;13.57;;
6197;SDS011;3132;42.622;23.328;2023-04-06T13:02:30;13.97;;;13.03;;
6197;SDS011;3132;42.622;23.328;2023-04-06T13:04:55;15.37;;;14.20;;
6197;SDS011;3132;42.622;23.328;2023-04-06T13:07:21;14.33;;;13.13;;
6197;SDS011;3132;42.622;23.328;2023-04-06T13:09:47;14.10;;;13.00;;
6197;SDS011;3132;42.622;23.328;2023-04-06T13:12:14;14.93;;;13.77;;
6197;SDS011;3132;42.622;23.328;2023-04-06T13:14:40;15.10;;;13.80;;
6197;SDS011;3132;42.622;23.328;2023-04-06T13:17:06;15.17;;;13.87;;
6197;SDS011;3132;42.622;23.328;2023-04-06T13:19:33;15.90;;;14.30;;
6197;SDS011;3132;42.622;23.328;2023-04-06T13:21:58;14.63;;;13.43;;
6197;SDS011;3132;42.622;23.328;2023-04-06T13:24:24;14.67;;;13.60;;
6197;SDS011;3132;42.622;23.328;2023-04-06T13:26:49;15.53;;;14.07;;
6197;SDS011;3132;42.622;23.328;2023-04-06T13:29:15;16.20;;;14.50;;
6197;SDS011;3132;42.622;23.328;2023-04-06T13:31:40;14.37;;;13.13;;
6197;SDS011;3132;42.622;23.328;2023-04-06T13:34:06;14.43;;;13.07;;
6197;SDS011;3132;42.622;23.328;2023-04-06T13:36:32;13.83;;;12.53;;
6197;SDS011;3132;42.622;23.328;2023-04-06T13:38:57;15.23;;;13.77;;
6197;SDS011;3132;42.622;23.328;2023-04-06T13:41:24;14.07;;;12.77;;
6197;SDS011;3132;42.622;23.328;2023-04-06T13:43:51;13.90;;;12.83;;
6197;SDS011;3132;42.622;23.328;2023-04-06T13:46:17;13.67;;;12.67;;
6197;SDS011;3132;42.622;23.328;2023-04-06T13:48:43;15.50;;;14.20;;
6197;SDS011;3132;42.622;23.328;2023-04-06T13:51:09;15.27;;;13.80;;
6197;SDS011;3132;42.622;23.328;2023-04-06T13:53:35;16.30;;;13.60;;
6197;SDS011;3132;42.622;23.328;2023-04-06T13:56:00;14.83;;;13.70;;
6197;SDS011;3132;42.622;23.328;2023-04-06T13:58:25;14.73;;;13.37;;
6197;SDS011;3132;42.622;23.328;2023-04-06T14:00:51;15.67;;;14.03;;
6197;SDS011;3132;42.622;23.328;2023-04-06T14:03:17;13.83;;;12.63;;
6197;SDS011;3132;42.622;23.328;2023-04-06T14:05:44;15.13;;;13.87;;
6197;SDS011;3132;42.622;23.328;2023-04-06T14:08:10;14.63;;;13.43;;
6197;SDS011;3132;42.622;23.328;2023-04-06T14:10:39;14.03;;;12.93;;
6197;SDS011;3132;42.622;23.328;2023-04-06T14:13:05;15.23;;;13.73;;
6197;SDS011;3132;42.622;23.328;2023-04-06T14:15:31;15.70;;;14.23;;
6197;SDS011;3132;42.622;23.328;2023-04-06T14:17:56;15.47;;;14.13;;
6197;SDS011;3132;42.622;23.328;2023-04-06T14:20:22;14.60;;;13.60;;
6197;SDS011;3132;42.622;23.328;2023-04-06T14:22:47;14.60;;;13.43;;
6197;SDS011;3132;42.622;23.328;2023-04-06T14:25:14;14.97;;;13.73;;
6197;SDS011;3132;42.622;23.328;2023-04-06T14:27:41;14.43;;;13.03;;
6197;SDS011;3132;42.622;23.328;2023-04-06T14:30:07;15.93;;;14.53;;
6197;SDS011;3132;42.622;23.328;2023-04-06T14:32:33;14.77;;;13.47;;
6197;SDS011;3132;42.622;23.328;2023-04-06T14:34:59;14.53;;;13.30;;
6197;SDS011;3132;42.622;23.328;2023-04-06T14:37:25;15.03;;;13.67;;
6197;SDS011;3132;42.622;23.328;2023-04-06T14:39:51;14.00;;;12.80;;
6197;SDS011;3132;42.622;23.328;2023-04-06T14:42:16;14.70;;;13.30;;
6197;SDS011;3132;42.622;23.328;2023-04-06T14:44:41;15.57;;;14.07;;
6197;SDS011;3132;42.622;23.328;2023-04-06T14:47:09;15.20;;;14.00;;